createdAt,value
2023-05-03T00:01:06.828Z,150068.50
2023-05-03T00:03:33.100Z,150112.66
2023-05-03T00:06:11.975Z,150101.28
2023-05-03T00:08:38.481Z,150120.19
2023-05-03T00:11:04.317Z,150113.91
2023-05-03T00:13:30.122Z,150068.50
2023-05-03T00:15:55.904Z,150064.72
2023-05-03T00:18:21.913Z,150071.00
2023-05-03T00:20:47.744Z,150065.97
2023-05-03T00:23:13.525Z,150091.19
2023-05-03T00:25:39.701Z,150088.66
2023-05-03T00:28:05.483Z,150086.16
2023-05-03T00:30:31.335Z,150077.34
2023-05-03T00:32:57.207Z,150063.47
2023-05-03T00:35:23.139Z,150029.44
2023-05-03T00:37:48.923Z,150052.09
2023-05-03T00:40:17.845Z,150034.47
2023-05-03T00:42:45.784Z,150026.91
2023-05-03T00:45:11.660Z,150021.88
2023-05-03T00:47:37.938Z,150040.78
2023-05-03T00:50:05.239Z,150044.56
2023-05-03T00:52:31.446Z,150025.66
2023-05-03T00:54:57.432Z,150016.81
2023-05-03T00:57:25.432Z,150023.16
2023-05-03T00:59:52.186Z,150047.06
2023-05-03T01:02:18.157Z,150021.88
2023-05-03T01:04:44.711Z,150026.91
2023-05-03T01:07:27.832Z,150010.53
2023-05-03T01:10:11.604Z,150005.50
2023-05-03T01:13:14.968Z,150011.78
2023-05-03T01:16:16.413Z,150057.13
2023-05-03T01:18:48.307Z,150033.19
2023-05-03T01:21:17.772Z,150062.22
2023-05-03T01:24:06.225Z,149985.28
2023-05-03T01:26:32.761Z,149977.75
2023-05-03T01:28:59.529Z,149962.63
2023-05-03T01:31:38.705Z,149965.13
2023-05-03T01:34:28.140Z,149955.06
2023-05-03T01:36:58.008Z,149956.34
2023-05-03T01:39:50.188Z,149952.56
2023-05-03T01:42:18.664Z,149966.38
2023-05-03T01:44:46.607Z,149939.94
2023-05-03T01:47:14.350Z,149928.59
2023-05-03T01:49:40.254Z,149933.66
2023-05-03T01:52:06.164Z,149955.06
2023-05-03T01:54:32.019Z,149990.38
2023-05-03T01:56:57.819Z,149981.53
2023-05-03T01:59:23.576Z,149991.63
2023-05-03T02:01:49.383Z,150002.94
2023-05-03T02:04:15.192Z,149912.19
2023-05-03T02:06:41.038Z,149902.16
2023-05-03T02:09:07.796Z,149927.31
2023-05-03T02:11:33.565Z,149921.03
2023-05-03T02:13:59.655Z,149939.94
2023-05-03T02:16:26.099Z,149956.34
2023-05-03T02:18:53.082Z,149951.31
2023-05-03T02:21:18.944Z,149902.16
2023-05-03T02:23:44.776Z,149892.03
2023-05-03T02:26:10.606Z,149793.81
2023-05-03T02:28:36.400Z,149797.56
2023-05-03T02:31:02.283Z,149807.69
2023-05-03T02:33:28.123Z,149845.47
2023-05-03T02:35:53.965Z,149845.47
2023-05-03T02:38:19.776Z,149846.72
2023-05-03T02:40:45.558Z,149853.00
2023-05-03T02:43:11.328Z,149885.75
2023-05-03T02:45:37.446Z,149892.03
2023-05-03T02:48:03.431Z,149860.59
2023-05-03T02:50:29.439Z,149885.75
2023-05-03T02:52:55.299Z,149874.41
2023-05-03T02:55:22.111Z,149890.78
2023-05-03T02:57:47.892Z,149853.00
2023-05-03T03:00:15.070Z,149851.75
2023-05-03T03:02:41.035Z,149860.59
2023-05-03T03:05:08.341Z,149806.38
2023-05-03T03:07:36.369Z,149832.84
2023-05-03T03:10:02.518Z,149839.13
2023-05-03T03:12:29.149Z,149837.88
2023-05-03T03:14:54.963Z,149836.63
2023-05-03T03:17:20.781Z,149832.84
2023-05-03T03:19:46.560Z,149805.13
2023-05-03T03:22:12.353Z,149709.41
2023-05-03T03:24:38.888Z,149768.59
2023-05-03T03:27:04.803Z,149787.47
2023-05-03T03:29:32.354Z,149791.28
2023-05-03T03:31:58.302Z,149766.06
2023-05-03T03:34:24.372Z,149749.69
2023-05-03T03:36:50.223Z,149730.81
2023-05-03T03:39:16.193Z,149776.19
2023-05-03T03:41:42.170Z,149808.94
2023-05-03T03:44:08.210Z,149791.28
2023-05-03T03:46:34.110Z,149800.09
2023-05-03T03:49:00.056Z,149791.28
2023-05-03T03:51:26.181Z,149781.19
2023-05-03T03:53:52.291Z,149773.66
2023-05-03T03:56:18.211Z,149771.16
2023-05-03T03:58:44.117Z,149769.84
2023-05-03T04:01:10.692Z,149766.06
2023-05-03T04:03:36.617Z,149734.59
2023-05-03T04:06:03.175Z,149740.91
2023-05-03T04:08:29.000Z,149757.28
2023-05-03T04:10:54.820Z,149703.13
2023-05-03T04:13:20.683Z,149734.59
2023-05-03T04:15:46.478Z,149735.88
2023-05-03T04:18:12.342Z,149743.41
2023-05-03T04:20:38.519Z,149722.03
2023-05-03T04:23:04.397Z,149737.13
2023-05-03T04:25:31.377Z,149742.16
2023-05-03T04:27:58.080Z,149776.19
2023-05-03T04:30:25.025Z,149772.41
2023-05-03T04:32:53.503Z,149750.97
2023-05-03T04:35:19.900Z,149778.69
2023-05-03T04:37:46.049Z,149767.34
2023-05-03T04:40:12.094Z,149791.28
2023-05-03T04:42:38.379Z,149757.28
2023-05-03T04:45:08.836Z,149768.59
2023-05-03T04:47:35.341Z,149764.81
2023-05-03T04:50:01.649Z,149793.81
2023-05-03T04:52:27.704Z,149795.06
2023-05-03T04:54:53.705Z,149783.72
2023-05-03T04:57:20.914Z,149798.84
2023-05-03T04:59:46.710Z,149807.69
2023-05-03T05:02:12.523Z,149788.78
2023-05-03T05:04:38.328Z,149822.75
2023-05-03T05:07:04.091Z,149825.31
2023-05-03T05:09:32.624Z,149855.50
2023-05-03T05:11:58.484Z,149880.75
2023-05-03T05:14:27.575Z,149905.91
2023-05-03T05:16:53.461Z,149902.16
2023-05-03T05:19:19.373Z,149882.00
2023-05-03T05:21:45.193Z,149921.03
2023-05-03T05:24:10.987Z,149926.06
2023-05-03T05:26:36.978Z,149921.03
2023-05-03T05:29:03.088Z,149910.94
2023-05-03T05:31:29.022Z,149936.19
2023-05-03T05:33:55.064Z,149928.59
2023-05-03T05:36:21.027Z,149946.22
2023-05-03T05:38:46.881Z,149976.50
2023-05-03T05:41:12.697Z,149947.47
2023-05-03T05:43:38.464Z,149961.38
2023-05-03T05:46:04.392Z,149989.09
2023-05-03T05:48:30.252Z,149995.41
2023-05-03T05:50:56.059Z,150015.56
2023-05-03T05:53:22.971Z,149996.66
2023-05-03T05:55:48.749Z,150025.66
2023-05-03T05:58:14.521Z,149999.16
2023-05-03T06:00:40.381Z,150072.28
2023-05-03T06:03:06.656Z,150069.75
2023-05-03T06:05:32.568Z,150101.28
2023-05-03T06:07:59.144Z,150112.66
2023-05-03T06:10:25.462Z,150120.19
2023-05-03T06:12:51.308Z,150120.19
2023-05-03T06:15:17.177Z,150141.63
2023-05-03T06:17:43.300Z,150175.69
2023-05-03T06:20:12.128Z,150178.19
2023-05-03T06:22:38.212Z,150175.69
2023-05-03T06:25:05.029Z,150203.44
2023-05-03T06:27:30.935Z,150227.41
2023-05-03T06:29:56.758Z,150229.91
2023-05-03T06:32:22.927Z,150234.94
2023-05-03T06:34:49.417Z,150263.97
2023-05-03T06:37:16.075Z,150276.59
2023-05-03T06:39:41.978Z,150308.16
2023-05-03T06:42:07.828Z,150320.78
2023-05-03T06:44:33.624Z,150330.91
2023-05-03T06:46:59.584Z,150340.97
2023-05-03T06:49:25.468Z,150375.03
2023-05-03T06:51:51.531Z,150351.06
2023-05-03T06:54:21.574Z,150354.84
2023-05-03T06:56:47.459Z,150375.03
2023-05-03T06:59:13.313Z,150401.56
2023-05-03T07:01:39.271Z,150391.44
2023-05-03T07:04:05.261Z,150416.72
2023-05-03T07:06:37.746Z,150415.41
2023-05-03T07:09:10.420Z,150450.75
2023-05-03T07:11:38.603Z,150450.75
2023-05-03T07:14:06.524Z,150438.16
2023-05-03T07:16:32.479Z,150455.84
2023-05-03T07:18:58.332Z,150476.03
2023-05-03T07:21:26.230Z,150468.41
2023-05-03T07:23:52.000Z,150478.53
2023-05-03T07:26:17.924Z,150482.31
2023-05-03T07:28:43.803Z,150502.50
2023-05-03T07:31:10.018Z,150525.25
2023-05-03T07:33:36.676Z,150497.47
2023-05-03T07:36:04.243Z,150520.19
2023-05-03T07:38:30.176Z,150554.28
2023-05-03T07:40:56.000Z,150601.00
2023-05-03T07:43:22.972Z,150574.47
2023-05-03T07:45:49.308Z,150595.97
2023-05-03T07:48:15.289Z,150578.28
2023-05-03T07:50:43.254Z,150563.13
2023-05-03T07:53:09.257Z,150585.84
2023-05-03T07:55:35.843Z,150607.31
2023-05-03T07:58:02.947Z,150637.63
2023-05-03T08:00:28.742Z,150652.78
2023-05-03T08:02:54.891Z,150621.22
2023-05-03T08:05:22.616Z,150650.28
2023-05-03T08:07:49.458Z,150671.75
2023-05-03T08:10:15.432Z,150684.34
2023-05-03T08:12:41.380Z,150729.81
2023-05-03T08:15:07.867Z,150742.47
2023-05-03T08:17:43.966Z,150763.94
2023-05-03T08:20:10.954Z,150762.69
2023-05-03T08:22:38.071Z,150771.50
2023-05-03T08:25:04.280Z,150760.16
2023-05-03T08:27:30.984Z,150796.81
2023-05-03T08:29:57.069Z,150789.19
2023-05-03T08:32:24.351Z,150801.84
2023-05-03T08:34:50.795Z,150830.94
2023-05-03T08:37:16.750Z,150799.31
2023-05-03T08:39:42.694Z,150828.34
2023-05-03T08:42:08.725Z,150854.91
2023-05-03T08:44:47.424Z,150905.53
2023-05-03T08:47:15.619Z,150913.09
2023-05-03T08:49:42.899Z,150892.88
2023-05-03T08:52:13.982Z,150930.78
2023-05-03T08:54:40.697Z,150895.41
2023-05-03T08:57:12.956Z,150921.97
2023-05-03T09:00:00.958Z,150896.66
2023-05-03T09:02:27.737Z,150920.69
2023-05-03T09:04:55.902Z,150945.97
2023-05-03T09:07:22.009Z,150935.84
2023-05-03T09:09:47.883Z,150972.50
2023-05-03T09:12:33.745Z,151021.81
2023-05-03T09:15:00.194Z,151015.50
2023-05-03T09:17:26.351Z,151064.84
2023-05-03T09:19:56.980Z,151066.09
2023-05-03T09:22:28.185Z,151117.94
2023-05-03T09:24:59.585Z,151109.06
2023-05-03T09:27:26.746Z,151105.28
2023-05-03T09:29:53.674Z,151115.38
2023-05-03T09:32:22.149Z,151085.06
2023-05-03T09:34:48.217Z,151098.94
2023-05-03T09:37:14.218Z,151139.44
2023-05-03T09:39:45.505Z,151155.88
2023-05-03T09:42:21.322Z,151160.94
2023-05-03T09:44:50.565Z,151190.03
2023-05-03T09:47:17.986Z,151240.59
2023-05-03T09:49:44.285Z,151274.78
2023-05-03T09:52:10.699Z,151302.63
2023-05-03T09:54:37.655Z,151255.81
2023-05-03T09:57:07.675Z,151352.00
2023-05-03T09:59:38.889Z,151364.69
2023-05-03T10:02:08.178Z,151384.91
2023-05-03T10:04:46.900Z,151478.63
2023-05-03T10:07:19.524Z,151552.06
2023-05-03T10:09:47.279Z,151604.00
2023-05-03T10:12:16.705Z,151652.09
2023-05-03T10:14:47.597Z,151676.19
2023-05-03T10:17:35.276Z,151718.00
2023-05-03T10:20:27.911Z,151778.84
2023-05-03T10:23:05.825Z,151806.75
2023-05-03T10:25:33.979Z,151808.00
2023-05-03T10:28:04.350Z,151859.97
2023-05-03T10:30:31.957Z,151877.72
2023-05-03T10:32:59.631Z,151900.53
2023-05-03T10:35:27.502Z,151924.59
2023-05-03T10:37:56.139Z,151995.59
2023-05-03T10:40:22.570Z,152072.97
2023-05-03T10:42:54.206Z,152144.00
2023-05-03T10:45:28.158Z,152135.16
2023-05-03T10:48:12.229Z,152212.53
2023-05-03T10:50:38.994Z,152163.09
2023-05-03T10:53:05.108Z,152267.09
2023-05-03T10:55:32.135Z,152334.38
2023-05-03T10:57:58.852Z,152383.88
2023-05-03T11:00:29.246Z,152289.97
2023-05-03T11:03:08.708Z,152419.47
2023-05-03T11:05:35.885Z,152378.81
2023-05-03T11:08:11.123Z,152472.78
2023-05-03T11:10:36.991Z,152482.94
2023-05-03T11:13:02.799Z,152471.53
2023-05-03T11:15:28.884Z,152593.41
2023-05-03T11:17:55.385Z,152574.34
2023-05-03T11:20:21.309Z,152582.00
2023-05-03T11:22:47.500Z,152589.59
2023-05-03T11:25:14.628Z,152674.72
2023-05-03T11:27:41.536Z,152744.66
2023-05-03T11:30:09.518Z,152825.94
2023-05-03T11:32:36.183Z,152851.41
2023-05-03T11:35:04.855Z,152881.88
2023-05-03T11:37:31.657Z,152904.78
2023-05-03T11:39:58.410Z,152911.13
2023-05-03T11:42:25.388Z,152965.81
2023-05-03T11:44:52.432Z,153075.19
2023-05-03T11:47:18.536Z,153071.38
2023-05-03T11:49:52.066Z,153059.91
2023-05-03T11:52:26.696Z,153094.25
2023-05-03T11:54:53.590Z,153067.56
2023-05-03T11:57:21.067Z,153070.09
2023-05-03T11:59:48.985Z,153122.25
2023-05-03T12:02:15.535Z,153110.78
2023-05-03T12:04:43.932Z,153182.03
2023-05-03T12:07:11.686Z,153178.22
2023-05-03T12:09:40.399Z,153126.06
2023-05-03T12:12:10.079Z,153100.59
2023-05-03T12:14:58.442Z,153070.09
2023-05-03T12:17:42.586Z,153185.81
2023-05-03T12:22:56.337Z,153316.91
2023-05-03T12:25:26.448Z,153240.56
2023-05-03T12:28:12.782Z,153302.94
2023-05-03T12:30:40.677Z,153318.19
2023-05-03T12:33:09.636Z,153341.13
2023-05-03T12:35:39.080Z,153301.69
2023-05-03T12:38:09.485Z,153366.56
2023-05-03T12:40:36.232Z,153253.31
2023-05-03T12:43:02.932Z,153174.41
2023-05-03T12:45:33.790Z,153147.66
2023-05-03T12:48:00.678Z,153143.88
2023-05-03T12:50:30.920Z,153357.66
2023-05-03T12:53:01.624Z,153319.50
2023-05-03T12:55:33.595Z,153281.28
2023-05-03T13:00:36.786Z,153498.97
2023-05-03T13:05:36.219Z,153535.88
2023-05-03T13:08:08.517Z,153504.09
2023-05-03T13:10:36.842Z,153486.28
2023-05-03T13:13:03.455Z,153581.75
2023-05-03T13:15:30.085Z,153565.19
2023-05-03T13:17:56.497Z,153618.69
2023-05-03T13:20:22.699Z,153682.38
2023-05-03T13:22:48.947Z,153756.31
2023-05-03T13:25:15.016Z,153725.72
2023-05-03T13:27:41.024Z,153707.88
2023-05-03T13:30:07.960Z,153675.97
2023-05-03T13:32:33.965Z,153639.03
2023-05-03T13:34:59.955Z,153614.88
2023-05-03T13:37:25.867Z,153612.31
2023-05-03T13:39:51.718Z,153412.41
2023-05-03T13:42:19.533Z,153493.88
2023-05-03T13:44:48.208Z,153509.19
2023-05-03T13:47:14.560Z,153543.56
2023-05-03T13:49:40.817Z,153560.13
2023-05-03T13:52:06.903Z,153635.25
2023-05-03T13:54:32.879Z,153621.22
2023-05-03T13:56:58.770Z,153574.13
2023-05-03T13:59:24.788Z,153495.16
2023-05-03T14:01:50.720Z,153450.56
2023-05-03T14:04:16.812Z,153560.13
2023-05-03T14:06:42.900Z,153491.34
2023-05-03T14:09:09.094Z,153414.94
2023-05-03T14:11:35.078Z,153490.09
2023-05-03T14:14:01.093Z,153468.44
2023-05-03T14:18:56.305Z,153658.16
2023-05-03T14:21:22.264Z,153690.06
2023-05-03T14:23:51.381Z,153654.34
2023-05-03T14:26:18.838Z,153598.31
2023-05-03T14:28:45.552Z,153488.81
2023-05-03T14:31:12.463Z,153446.78
2023-05-03T14:33:39.244Z,153473.53
2023-05-03T14:36:08.800Z,153622.50
2023-05-03T14:38:36.512Z,153607.19
2023-05-03T14:41:02.862Z,153621.22
2023-05-03T14:43:28.770Z,153543.56
2023-05-03T14:45:54.731Z,153486.28
2023-05-03T14:48:20.588Z,153529.53
2023-05-03T14:50:50.483Z,153556.31
2023-05-03T14:53:16.492Z,153567.72
2023-05-03T14:55:42.833Z,153514.25
2023-05-03T14:58:10.091Z,153543.56
2023-05-03T15:00:40.275Z,153483.72
2023-05-03T15:03:10.741Z,153512.97
2023-05-03T15:05:46.903Z,153445.44
2023-05-03T15:08:14.488Z,153496.44
2023-05-03T15:10:41.437Z,153454.38
2023-05-03T15:13:08.800Z,153481.13
2023-05-03T15:15:35.294Z,153384.38
2023-05-03T15:18:01.216Z,153369.09
2023-05-03T15:20:27.074Z,153398.38
2023-05-03T15:22:53.074Z,153467.19
2023-05-03T15:25:18.979Z,153482.47
2023-05-03T15:27:44.975Z,153539.75
2023-05-03T15:30:14.512Z,153619.94
2023-05-03T15:32:40.420Z,153591.97
2023-05-03T15:35:06.554Z,153563.91
2023-05-03T15:37:36.922Z,153446.78
2023-05-03T15:40:04.772Z,153423.81
2023-05-03T15:42:31.259Z,153280.00
2023-05-03T15:44:57.412Z,153258.38
2023-05-03T15:47:24.054Z,153337.31
2023-05-03T15:49:50.041Z,153372.91
2023-05-03T15:52:16.446Z,153367.81
2023-05-03T15:54:42.346Z,153459.50
2023-05-03T15:57:08.494Z,153533.34
2023-05-03T15:59:34.391Z,153436.56
2023-05-03T16:02:02.567Z,153306.75
2023-05-03T16:04:28.594Z,153252.03
2023-05-03T16:06:54.520Z,153325.84
2023-05-03T16:09:21.055Z,153300.38
2023-05-03T16:11:47.006Z,153248.25
2023-05-03T16:14:13.260Z,153308.03
2023-05-03T16:16:39.902Z,153225.31
2023-05-03T16:19:07.998Z,153306.75
2023-05-03T16:21:33.832Z,153337.31
2023-05-03T16:23:59.808Z,153314.38
2023-05-03T16:26:26.137Z,153344.94
2023-05-03T16:28:52.020Z,153423.81
2023-05-03T16:31:17.951Z,153353.81
2023-05-03T16:33:43.867Z,153348.75
2023-05-03T16:36:10.093Z,153407.25
2023-05-03T16:38:36.364Z,153409.84
2023-05-03T16:41:02.597Z,153370.34
2023-05-03T16:43:29.063Z,153337.31
2023-05-03T16:45:59.494Z,153285.13
2023-05-03T16:48:29.575Z,153271.13
2023-05-03T16:50:55.964Z,153239.31
2023-05-03T16:53:22.503Z,153209.97
2023-05-03T16:55:48.358Z,153170.56
2023-05-03T16:58:14.779Z,153243.13
2023-05-03T17:00:40.954Z,153227.84
2023-05-03T17:03:07.586Z,153263.47
2023-05-03T17:05:34.430Z,153266.06
2023-05-03T17:08:01.395Z,153148.94
2023-05-03T17:10:28.252Z,153087.91
2023-05-03T17:13:01.259Z,153092.97
2023-05-03T17:15:27.544Z,153054.84
2023-05-03T17:17:53.593Z,152984.91
2023-05-03T17:20:20.009Z,153007.78
2023-05-03T17:22:45.903Z,153043.38
2023-05-03T17:25:11.759Z,153056.09
2023-05-03T17:27:37.655Z,153064.97
2023-05-03T17:30:05.222Z,153043.38
2023-05-03T17:32:31.553Z,152913.66
2023-05-03T17:34:57.843Z,152870.47
2023-05-03T17:37:24.442Z,152839.94
2023-05-03T17:39:50.587Z,152836.13
2023-05-03T17:42:16.505Z,152867.91
2023-05-03T17:44:42.857Z,152804.34
2023-05-03T17:47:10.263Z,152831.06
2023-05-03T17:49:37.088Z,152700.16
2023-05-03T17:52:03.955Z,152663.25
2023-05-03T17:54:30.211Z,152655.66
2023-05-03T17:56:56.338Z,152611.19
2023-05-03T17:59:22.136Z,152631.50
2023-05-03T18:01:48.221Z,152517.22
2023-05-03T18:04:14.510Z,152532.47
2023-05-03T18:06:40.591Z,152481.66
2023-05-03T18:09:07.304Z,152495.63
2023-05-03T18:11:33.277Z,152477.84
2023-05-03T18:13:59.240Z,152468.94
2023-05-03T18:16:25.430Z,152430.88
2023-05-03T18:18:52.367Z,152388.94
2023-05-03T18:21:18.444Z,152344.53
2023-05-03T18:23:44.776Z,152269.63
2023-05-03T18:26:10.601Z,152211.28
2023-05-03T18:28:36.948Z,152199.88
2023-05-03T18:31:03.507Z,152180.84
2023-05-03T18:33:31.359Z,152147.88
2023-05-03T18:35:58.128Z,152102.19
2023-05-03T18:38:24.519Z,152093.28
2023-05-03T18:40:51.048Z,152065.34
2023-05-03T18:43:16.987Z,151991.81
2023-05-03T18:45:43.458Z,152026.03
2023-05-03T18:48:09.520Z,151985.47
2023-05-03T18:50:37.591Z,151962.63
2023-05-03T18:53:04.563Z,151936.03
2023-05-03T18:55:30.615Z,151961.34
2023-05-03T18:57:56.547Z,151989.28
2023-05-03T19:00:22.497Z,151989.28
2023-05-03T19:03:00.811Z,151967.72
2023-05-03T19:05:26.968Z,151932.22
2023-05-03T19:07:56.200Z,151948.72
2023-05-03T19:10:22.112Z,151920.81
2023-05-03T19:12:48.090Z,151911.94
2023-05-03T19:15:14.217Z,151922.06
2023-05-03T19:17:41.255Z,151843.50
2023-05-03T19:20:09.425Z,151789.00
2023-05-03T19:22:35.497Z,151790.25
2023-05-03T19:25:04.115Z,151791.53
2023-05-03T19:27:30.808Z,151773.78
2023-05-03T19:29:57.277Z,151757.31
2023-05-03T19:32:23.798Z,151712.94
2023-05-03T19:34:49.781Z,151724.31
2023-05-03T19:37:15.554Z,151692.63
2023-05-03T19:39:41.489Z,151688.84
2023-05-03T19:42:08.218Z,151659.72
2023-05-03T19:44:34.113Z,151661.00
2023-05-03T19:47:00.140Z,151631.84
2023-05-03T19:49:26.112Z,151582.44
2023-05-03T19:51:55.272Z,151582.44
2023-05-03T19:54:22.261Z,151577.38
2023-05-03T19:56:49.705Z,151577.38
2023-05-03T19:59:15.605Z,151564.69
2023-05-03T20:01:42.213Z,151539.41
2023-05-03T20:04:08.236Z,151535.59
2023-05-03T20:06:34.187Z,151514.09
2023-05-03T20:09:00.012Z,151487.47
2023-05-03T20:11:25.941Z,151477.38
2023-05-03T20:13:51.860Z,151477.38
2023-05-03T20:16:20.104Z,151474.81
2023-05-03T20:18:47.438Z,151474.81
2023-05-03T20:21:13.790Z,151459.66
2023-05-03T20:23:39.621Z,151455.81
2023-05-03T20:26:05.839Z,151438.09
2023-05-03T20:28:36.324Z,151429.25
2023-05-03T20:31:02.303Z,151468.50
2023-05-03T20:33:28.345Z,151453.28
2023-05-03T20:35:54.253Z,151424.19
2023-05-03T20:38:20.324Z,151393.81
2023-05-03T20:40:46.100Z,151390.00
2023-05-03T20:43:12.613Z,151400.13
2023-05-03T20:45:40.675Z,151402.66
2023-05-03T20:48:11.542Z,151395.06
2023-05-03T20:50:37.662Z,151392.53
2023-05-03T20:53:03.509Z,151382.41
2023-05-03T20:55:29.386Z,151367.19
2023-05-03T20:57:56.114Z,151415.31
2023-05-03T21:00:22.119Z,151401.38
2023-05-03T21:02:52.869Z,151369.78
2023-05-03T21:05:20.274Z,151335.53
2023-05-03T21:07:46.663Z,151339.34
2023-05-03T21:10:12.640Z,151343.13
2023-05-03T21:12:38.562Z,151371.03
2023-05-03T21:15:04.821Z,151340.59
2023-05-03T21:17:30.651Z,151326.66
2023-05-03T21:19:56.557Z,151345.66
2023-05-03T21:22:22.401Z,151322.88
2023-05-03T21:24:48.358Z,151332.97
2023-05-03T21:27:14.266Z,151360.88
2023-05-03T21:29:40.174Z,151320.34
2023-05-03T21:32:06.309Z,151346.91
2023-05-03T21:34:32.394Z,151346.91
2023-05-03T21:36:58.298Z,151387.50
2023-05-03T21:39:24.415Z,151350.69
2023-05-03T21:41:50.698Z,151326.66
2023-05-03T21:44:16.701Z,151315.31
2023-05-03T21:46:42.535Z,151297.59
2023-05-03T21:49:08.486Z,151303.91
2023-05-03T21:51:34.348Z,151301.38
2023-05-03T21:54:00.158Z,151314.00
2023-05-03T21:56:29.168Z,151306.41
2023-05-03T21:58:54.970Z,151292.50
2023-05-03T22:01:21.217Z,151281.13
2023-05-03T22:03:49.405Z,151269.72
2023-05-03T22:06:15.262Z,151277.31
2023-05-03T22:08:41.091Z,151281.13
2023-05-03T22:11:06.973Z,151284.91
2023-05-03T22:13:33.790Z,151250.75
2023-05-03T22:16:07.481Z,151265.94
2023-05-03T22:18:34.257Z,151253.28
2023-05-03T22:21:03.933Z,151244.44
2023-05-03T22:23:30.414Z,151226.72
2023-05-03T22:25:56.754Z,151253.28
2023-05-03T22:28:22.683Z,151249.50
2023-05-03T22:30:51.309Z,151239.34
2023-05-03T22:33:17.188Z,151212.81
2023-05-03T22:35:43.147Z,151183.69
2023-05-03T22:38:08.900Z,151184.94
2023-05-03T22:40:34.787Z,151195.09
2023-05-03T22:43:00.608Z,151195.09
2023-05-03T22:45:26.452Z,151188.75
2023-05-03T22:47:52.270Z,151177.38
2023-05-03T22:50:18.117Z,151181.16
2023-05-03T22:52:43.971Z,151184.94
2023-05-03T22:55:09.837Z,151187.47
2023-05-03T22:57:35.900Z,151196.34
2023-05-03T23:00:02.294Z,151187.47
2023-05-03T23:02:28.414Z,151174.84
2023-05-03T23:04:54.354Z,151164.72
2023-05-03T23:07:20.252Z,151155.88
2023-05-03T23:09:47.721Z,151179.91
2023-05-03T23:12:13.737Z,151190.03
2023-05-03T23:14:42.800Z,151164.72
2023-05-03T23:17:09.918Z,151130.56
2023-05-03T23:19:36.293Z,151143.22
2023-05-03T23:22:05.140Z,151160.94
2023-05-03T23:24:30.914Z,151130.56
2023-05-03T23:26:56.808Z,151136.91
2023-05-03T23:29:23.193Z,151148.28
2023-05-03T23:31:49.688Z,151139.44
2023-05-03T23:34:16.101Z,151155.88
2023-05-03T23:36:42.020Z,151160.94
2023-05-03T23:39:08.122Z,151174.84
2023-05-03T23:41:33.977Z,151157.16
2023-05-03T23:43:59.952Z,151112.84
2023-05-03T23:46:26.038Z,151091.38
2023-05-03T23:48:51.972Z,151104.03
2023-05-03T23:51:17.794Z,151096.41
2023-05-03T23:53:43.610Z,151059.75
2023-05-03T23:56:09.465Z,151083.78
2023-05-03T23:58:35.515Z,151105.28
